Time;durP1;ratioP1;P1;durP2;ratioP2;P2;SDS_P1;SDS_P2;PMS_P1;PMS_P2;Temp;Humidity;BMP_temperature;BMP_pressure;BME280_temperature;BME280_humidity;BME280_pressure;Samples;Min_cycle;Max_cycle;Signal;HPM_P1;HPM_P2
2022/06/16 00:00:23;;;;;;;;;;;19.50;97.60;;;;;;8370155;28;19928;-75
2022/06/16 00:04:25;;;;;;;;;;;19.40;97.50;;;;;;8368441;28;19931;-76
2022/06/16 00:08:26;;;;;;;;;;;19.30;97.40;;;;;;8383313;28;19928;-76
2022/06/16 00:12:28;;;;;;;;;;;19.30;97.40;;;;;;8387452;28;19925;-75
2022/06/16 00:16:30;;;;;;;;;;;19.20;97.40;;;;;;8386933;28;19929;-76
2022/06/16 00:20:32;;;;;;;;;;;19.10;97.40;;;;;;8382032;28;19992;-75
2022/06/16 00:24:33;;;;;;;;;;;19.10;97.40;;;;;;8381034;28;19948;-76
2022/06/16 00:28:35;;;;;;;;;;;19.00;97.30;;;;;;8379525;28;19931;-75
2022/06/16 00:32:37;;;;;;;;;;;19.00;97.30;;;;;;8387936;28;19928;-75
2022/06/16 00:36:39;;;;;;;;;;;18.90;97.20;;;;;;8379483;28;19931;-75
2022/06/16 00:40:41;;;;;;;;;;;18.90;97.10;;;;;;8378375;28;19936;-75
2022/06/16 00:44:46;;;;;;;;;;;18.80;97.10;;;;;;8373839;28;19932;-75
2022/06/16 00:48:48;;;;;;;;;;;18.70;97.10;;;;;;8337383;28;19924;-75
2022/06/16 00:52:50;;;;;;;;;;;18.70;97.20;;;;;;8362196;28;20391;-75
2022/06/16 00:57:00;;;;;;;;;;;18.60;97.20;;;;;;8348321;28;19932;-75
2022/06/16 01:01:02;;;;;;;;;;;18.50;97.20;;;;;;8348109;28;19929;-75
2022/06/16 01:05:04;;;;;;;;;;;18.40;97.20;;;;;;8354142;28;19972;-75
2022/06/16 01:09:11;;;;;;;;;;;18.40;97.20;;;;;;8346886;28;19960;-75
2022/06/16 01:17:33;;;;;;;;;;;18.20;97.20;;;;;;8360938;28;19932;-75
2022/06/16 01:21:43;;;;;;;;;;;18.20;97.20;;;;;;8355968;28;20471;-75
2022/06/16 01:26:14;;;;;;;;;;;18.10;97.20;;;;;;8357050;28;20364;-75
2022/06/16 01:30:19;;;;;;;;;;;17.90;97.10;;;;;;8345013;28;19971;-75
2022/06/16 01:34:37;;;;;;;;;;;17.80;97.10;;;;;;8358203;28;20300;-75
2022/06/16 01:38:47;;;;;;;;;;;17.70;97.20;;;;;;8327914;28;19925;-75
2022/06/16 01:43:11;;;;;;;;;;;17.60;97.10;;;;;;8360150;28;20400;-75
2022/06/16 01:47:16;;;;;;;;;;;17.40;97.20;;;;;;8385710;28;19939;-75
2022/06/16 01:51:27;;;;;;;;;;;17.30;97.20;;;;;;8377257;28;19931;-75
2022/06/16 01:55:35;;;;;;;;;;;17.20;97.10;;;;;;8398468;28;19936;-75
2022/06/16 01:59:41;;;;;;;;;;;17.10;97.10;;;;;;8383095;28;19924;-75
2022/06/16 02:03:46;;;;;;;;;;;17.10;97.10;;;;;;8387338;28;19928;-75
2022/06/16 02:07:53;;;;;;;;;;;17.00;97.10;;;;;;8399145;28;19925;-75
2022/06/16 02:11:56;;;;;;;;;;;16.90;97.10;;;;;;8381859;28;19962;-75
2022/06/16 02:16:01;;;;;;;;;;;16.90;97.10;;;;;;8381661;28;19925;-75
2022/06/16 02:20:03;;;;;;;;;;;16.80;97.00;;;;;;8398217;28;20382;-75
2022/06/16 02:24:06;;;;;;;;;;;16.70;97.00;;;;;;8403393;28;19982;-75
2022/06/16 02:28:08;;;;;;;;;;;16.60;97.00;;;;;;8399211;28;20364;-75
2022/06/16 02:32:19;;;;;;;;;;;16.50;97.00;;;;;;8402030;28;19924;-75
2022/06/16 02:36:29;;;;;;;;;;;16.40;97.00;;;;;;8400661;28;19924;-75
2022/06/16 02:40:46;;;;;;;;;;;16.30;97.00;;;;;;8388686;28;19955;-75
2022/06/16 02:44:59;;;;;;;;;;;16.20;97.00;;;;;;8390569;28;19939;-75
2022/06/16 02:49:09;;;;;;;;;;;16.10;97.00;;;;;;8386559;28;19928;-75
2022/06/16 02:53:11;;;;;;;;;;;16.10;97.00;;;;;;8392340;28;19929;-75
2022/06/16 02:57:13;;;;;;;;;;;16.00;97.00;;;;;;8384252;28;19939;-75
2022/06/16 03:01:15;;;;;;;;;;;16.00;96.90;;;;;;8396110;28;19928;-75
2022/06/16 03:05:17;;;;;;;;;;;15.90;96.90;;;;;;8401155;28;19978;-75
2022/06/16 03:09:19;;;;;;;;;;;15.80;96.90;;;;;;8391049;28;20327;-75
2022/06/16 03:13:24;;;;;;;;;;;15.70;96.90;;;;;;8388122;28;20316;-75
2022/06/16 03:17:26;;;;;;;;;;;15.60;96.90;;;;;;8383489;28;20307;-76
2022/06/16 03:21:28;;;;;;;;;;;15.50;96.90;;;;;;8403462;28;19925;-75
2022/06/16 03:25:29;;;;;;;;;;;15.50;96.90;;;;;;8383680;28;19924;-75
2022/06/16 03:29:31;;;;;;;;;;;15.40;97.00;;;;;;8411902;28;20360;-75
2022/06/16 03:33:33;;;;;;;;;;;15.30;97.00;;;;;;8386468;28;19924;-75
2022/06/16 03:37:34;;;;;;;;;;;15.20;96.90;;;;;;8385687;28;19931;-75
2022/06/16 03:41:36;;;;;;;;;;;15.10;96.90;;;;;;8389205;28;19928;-76
2022/06/16 03:45:38;;;;;;;;;;;15.10;97.00;;;;;;8385480;28;19931;-75
2022/06/16 03:49:39;;;;;;;;;;;15.00;97.10;;;;;;8376847;28;19932;-75
2022/06/16 03:53:41;;;;;;;;;;;15.00;97.20;;;;;;8388388;28;19943;-76
2022/06/16 03:57:45;;;;;;;;;;;15.00;97.30;;;;;;8383034;28;19987;-76
2022/06/16 04:01:46;;;;;;;;;;;14.90;97.30;;;;;;8374892;28;19955;-75
2022/06/16 04:05:48;;;;;;;;;;;14.90;97.30;;;;;;8394908;28;19977;-75
2022/06/16 04:09:49;;;;;;;;;;;14.90;97.30;;;;;;8375446;28;19928;-75
2022/06/16 04:13:52;;;;;;;;;;;14.80;97.30;;;;;;8391783;28;19928;-75
2022/06/16 04:17:54;;;;;;;;;;;14.80;97.40;;;;;;8395313;28;19925;-75
2022/06/16 04:21:56;;;;;;;;;;;14.80;97.50;;;;;;8398779;28;19931;-75
2022/06/16 04:25:57;;;;;;;;;;;14.80;97.50;;;;;;8394607;28;20736;-75
2022/06/16 04:29:59;;;;;;;;;;;14.70;97.50;;;;;;8396822;28;20322;-75
2022/06/16 04:34:01;;;;;;;;;;;14.70;97.60;;;;;;8388137;28;19969;-75
2022/06/16 04:38:02;;;;;;;;;;;14.70;97.70;;;;;;8396891;28;19928;-75
2022/06/16 04:42:04;;;;;;;;;;;14.70;97.80;;;;;;8390037;28;19967;-75
2022/06/16 04:46:06;;;;;;;;;;;14.60;98.00;;;;;;8378603;28;19931;-75
2022/06/16 04:50:09;;;;;;;;;;;14.80;98.20;;;;;;8390367;28;19990;-75
2022/06/16 04:54:11;;;;;;;;;;;14.90;98.40;;;;;;8395242;28;19947;-75
2022/06/16 04:58:13;;;;;;;;;;;15.00;98.50;;;;;;8399315;28;20026;-75
2022/06/16 05:02:14;;;;;;;;;;;15.10;98.70;;;;;;8393781;28;20534;-72
2022/06/16 05:06:18;;;;;;;;;;;15.20;98.90;;;;;;8385878;28;19956;-72
2022/06/16 05:10:19;;;;;;;;;;;15.30;99.10;;;;;;8387953;28;19932;-72
2022/06/16 05:14:22;;;;;;;;;;;15.40;99.30;;;;;;8394019;28;19933;-72
2022/06/16 05:18:24;;;;;;;;;;;15.60;99.50;;;;;;8393081;28;20300;-72
2022/06/16 05:22:26;;;;;;;;;;;15.80;99.70;;;;;;8389803;28;19924;-72
2022/06/16 05:26:28;;;;;;;;;;;16.00;99.90;;;;;;8395580;28;20394;-72
2022/06/16 05:30:30;;;;;;;;;;;16.20;99.90;;;;;;8398217;28;19924;-72
2022/06/16 05:34:31;;;;;;;;;;;16.40;99.90;;;;;;8384201;28;19935;-72
2022/06/16 05:38:34;;;;;;;;;;;16.50;99.90;;;;;;8395929;28;20308;-72
2022/06/16 05:42:35;;;;;;;;;;;16.70;99.90;;;;;;8393281;28;19932;-72
2022/06/16 05:46:37;;;;;;;;;;;16.80;99.90;;;;;;8390939;28;19932;-72
2022/06/16 05:50:39;;;;;;;;;;;16.90;99.90;;;;;;8391850;28;20295;-72
2022/06/16 05:54:41;;;;;;;;;;;17.00;99.90;;;;;;8396566;28;20279;-72
2022/06/16 05:58:43;;;;;;;;;;;17.20;99.90;;;;;;8388928;28;19924;-72
2022/06/16 06:02:45;;;;;;;;;;;17.30;99.90;;;;;;8389475;28;20375;-72
2022/06/16 06:06:46;;;;;;;;;;;17.40;99.90;;;;;;8394458;28;19924;-72
2022/06/16 06:19:46;;;;;;;;;;;17.70;99.90;;;;;;8391883;28;19971;-72
2022/06/16 06:23:48;;;;;;;;;;;17.80;99.90;;;;;;8394770;28;19925;-72
2022/06/16 06:27:50;;;;;;;;;;;17.90;99.90;;;;;;8402166;28;20016;-72
2022/06/16 06:31:51;;;;;;;;;;;17.90;99.90;;;;;;8399626;28;19951;-72
2022/06/16 06:35:54;;;;;;;;;;;18.00;99.90;;;;;;8392001;28;19925;-72
2022/06/16 06:39:56;;;;;;;;;;;18.10;99.90;;;;;;8395983;28;19924;-72
2022/06/16 06:43:59;;;;;;;;;;;18.20;99.90;;;;;;8387384;28;19925;-72
2022/06/16 06:48:03;;;;;;;;;;;18.30;99.90;;;;;;8391996;28;19924;-72
2022/06/16 06:52:04;;;;;;;;;;;18.40;99.90;;;;;;8392400;28;19925;-72
2022/06/16 06:56:12;;;;;;;;;;;18.40;99.90;;;;;;8394531;28;19932;-72
2022/06/16 07:00:15;;;;;;;;;;;18.50;99.90;;;;;;8392151;28;19955;-72
2022/06/16 07:04:17;;;;;;;;;;;18.60;99.90;;;;;;8390504;28;19943;-72
2022/06/16 07:08:19;;;;;;;;;;;18.60;99.90;;;;;;8392486;28;20046;-71
2022/06/16 07:12:20;;;;;;;;;;;18.70;99.90;;;;;;8386352;28;19939;-71
2022/06/16 07:16:22;;;;;;;;;;;18.80;99.90;;;;;;8391528;28;20338;-71
2022/06/16 07:20:24;;;;;;;;;;;18.90;99.90;;;;;;8391466;28;19947;-72
2022/06/16 07:24:26;;;;;;;;;;;19.00;99.90;;;;;;8385688;28;19924;-71
2022/06/16 07:28:28;;;;;;;;;;;19.00;99.90;;;;;;8423271;28;19924;-72
2022/06/16 07:32:29;;;;;;;;;;;19.10;99.90;;;;;;8388147;28;19928;-72
2022/06/16 07:36:31;;;;;;;;;;;19.20;99.90;;;;;;8392920;28;19925;-72
2022/06/16 07:40:33;;;;;;;;;;;19.30;99.90;;;;;;8390542;28;20043;-72
2022/06/16 07:44:36;;;;;;;;;;;19.40;99.90;;;;;;8388872;28;19932;-72
2022/06/16 07:48:37;;;;;;;;;;;19.40;99.90;;;;;;8390222;28;19924;-71
2022/06/16 07:52:39;;;;;;;;;;;19.50;99.90;;;;;;8391152;28;19925;-71
2022/06/16 07:56:41;;;;;;;;;;;19.60;99.90;;;;;;8390370;28;19931;-72
2022/06/16 08:00:42;;;;;;;;;;;19.70;99.90;;;;;;8388850;28;19958;-72
2022/06/16 08:04:44;;;;;;;;;;;19.80;99.90;;;;;;8391151;28;19935;-72
2022/06/16 08:08:45;;;;;;;;;;;19.90;99.90;;;;;;8384353;28;19932;-72
2022/06/16 08:12:47;;;;;;;;;;;20.00;99.90;;;;;;8368100;28;19936;-72
2022/06/16 08:16:49;;;;;;;;;;;20.00;99.90;;;;;;8353025;28;19933;-72
2022/06/16 08:20:52;;;;;;;;;;;20.10;99.90;;;;;;8351417;28;19928;-72
2022/06/16 08:24:54;;;;;;;;;;;20.20;99.90;;;;;;8353356;28;19932;-72
2022/06/16 08:28:57;;;;;;;;;;;20.20;99.90;;;;;;8351294;28;19932;-72
2022/06/16 08:32:59;;;;;;;;;;;20.20;99.90;;;;;;8386594;28;19924;-71
2022/06/16 08:37:01;;;;;;;;;;;20.20;99.90;;;;;;8351113;28;22464;-72
2022/06/16 08:41:15;;;;;;;;;;;20.30;99.90;;;;;;8371028;28;19925;-72
2022/06/16 08:45:42;;;;;;;;;;;20.30;99.90;;;;;;8353666;28;19925;-72
2022/06/16 08:50:11;;;;;;;;;;;20.30;99.90;;;;;;8354178;28;20011;-71
2022/06/16 08:54:33;;;;;;;;;;;20.40;99.90;;;;;;8367364;28;19927;-72
2022/06/16 08:58:38;;;;;;;;;;;20.40;99.90;;;;;;8354538;28;19972;-72
2022/06/16 09:02:39;;;;;;;;;;;20.40;99.90;;;;;;8383470;28;20349;-72
2022/06/16 09:06:47;;;;;;;;;;;20.50;99.90;;;;;;8357591;28;19933;-72
2022/06/16 09:10:54;;;;;;;;;;;20.60;99.90;;;;;;8350403;28;19924;-72
2022/06/16 09:15:10;;;;;;;;;;;20.60;99.90;;;;;;8352371;28;19932;-72
2022/06/16 09:19:45;;;;;;;;;;;20.80;99.90;;;;;;8372757;28;19932;-72
2022/06/16 09:24:05;;;;;;;;;;;20.90;99.90;;;;;;8342054;28;19933;-72
2022/06/16 09:28:15;;;;;;;;;;;20.90;99.90;;;;;;8353493;28;19940;-72
2022/06/16 09:32:25;;;;;;;;;;;21.00;99.90;;;;;;8352688;28;19924;-72
2022/06/16 09:36:29;;;;;;;;;;;21.10;99.90;;;;;;8357898;28;20411;-71
2022/06/16 09:40:33;;;;;;;;;;;21.20;99.90;;;;;;8360414;28;19921;-72
2022/06/16 09:44:38;;;;;;;;;;;21.20;99.90;;;;;;8356716;28;19935;-72
2022/06/16 09:48:55;;;;;;;;;;;21.20;99.90;;;;;;8355196;28;19979;-72
2022/06/16 09:53:03;;;;;;;;;;;21.30;99.90;;;;;;8359087;28;19928;-71
2022/06/16 09:57:05;;;;;;;;;;;21.40;99.90;;;;;;8360696;28;19927;-72
2022/06/16 10:01:08;;;;;;;;;;;21.40;99.90;;;;;;8360719;28;19924;-72
2022/06/16 10:05:14;;;;;;;;;;;21.50;99.90;;;;;;8358918;28;19928;-72
2022/06/16 10:09:19;;;;;;;;;;;21.60;99.90;;;;;;8357903;28;19921;-72
2022/06/16 10:13:26;;;;;;;;;;;21.70;99.90;;;;;;8354787;28;19928;-72
2022/06/16 10:17:33;;;;;;;;;;;21.70;99.90;;;;;;8357168;28;19959;-72
2022/06/16 10:21:35;;;;;;;;;;;21.80;99.90;;;;;;8360259;28;19943;-72
2022/06/16 10:25:43;;;;;;;;;;;21.80;99.90;;;;;;8355254;28;20107;-72
2022/06/16 10:29:56;;;;;;;;;;;21.80;99.90;;;;;;8358843;28;19924;-72
2022/06/16 10:33:58;;;;;;;;;;;21.80;99.90;;;;;;8353583;28;20141;-72
2022/06/16 10:38:00;;;;;;;;;;;21.80;99.90;;;;;;8354657;28;20352;-72
2022/06/16 10:42:05;;;;;;;;;;;21.90;99.90;;;;;;8351641;28;19941;-72
2022/06/16 10:46:21;;;;;;;;;;;22.00;99.90;;;;;;8373068;28;20116;-72
2022/06/16 10:50:25;;;;;;;;;;;22.10;99.90;;;;;;8375138;28;19927;-72
2022/06/16 10:54:27;;;;;;;;;;;22.10;99.90;;;;;;8357534;28;24075;-72
2022/06/16 10:58:31;;;;;;;;;;;22.20;99.90;;;;;;8370106;28;19947;-72
2022/06/16 11:02:35;;;;;;;;;;;22.20;99.90;;;;;;8363863;28;19932;-72
2022/06/16 11:06:38;;;;;;;;;;;22.30;99.90;;;;;;8356118;28;19924;-72
2022/06/16 11:10:40;;;;;;;;;;;22.30;99.90;;;;;;8353173;28;19925;-71
2022/06/16 11:14:54;;;;;;;;;;;22.30;99.90;;;;;;8355110;28;19924;-72
2022/06/16 11:18:58;;;;;;;;;;;22.40;99.90;;;;;;8356428;28;19925;-72
2022/06/16 11:23:00;;;;;;;;;;;22.50;99.90;;;;;;8352112;28;20388;-72
2022/06/16 11:27:04;;;;;;;;;;;22.50;99.90;;;;;;8383784;28;19950;-72
2022/06/16 11:31:06;;;;;;;;;;;22.50;99.90;;;;;;8360405;28;20334;-72
2022/06/16 11:45:34;;;;;;;;;;;22.80;99.90;;;;;;8354606;28;20490;-72
2022/06/16 11:49:40;;;;;;;;;;;22.90;99.90;;;;;;8356293;28;19927;-71
2022/06/16 11:54:02;;;;;;;;;;;23.00;99.90;;;;;;8350373;28;19935;-71
2022/06/16 11:58:07;;;;;;;;;;;23.00;99.90;;;;;;8350284;28;19929;-72
2022/06/16 12:02:25;;;;;;;;;;;23.00;99.90;;;;;;8354582;28;19925;-72
2022/06/16 12:06:33;;;;;;;;;;;23.10;99.90;;;;;;8354335;28;20309;-72
2022/06/16 12:10:35;;;;;;;;;;;23.10;99.90;;;;;;8368543;28;19921;-72
2022/06/16 12:14:39;;;;;;;;;;;23.10;99.90;;;;;;8351681;28;19924;-72
2022/06/16 12:18:44;;;;;;;;;;;23.10;99.90;;;;;;8351189;28;19922;-72
2022/06/16 12:23:07;;;;;;;;;;;23.10;99.90;;;;;;8350839;28;25108;-72
2022/06/16 12:27:09;;;;;;;;;;;23.10;99.90;;;;;;8367004;28;19924;-72
2022/06/16 12:31:33;;;;;;;;;;;23.20;99.90;;;;;;8354602;28;19974;-72
2022/06/16 12:35:45;;;;;;;;;;;23.20;99.90;;;;;;8351379;28;20380;-72
2022/06/16 12:39:49;;;;;;;;;;;23.20;99.90;;;;;;8353505;28;19932;-71
2022/06/16 12:44:00;;;;;;;;;;;23.30;99.90;;;;;;8353332;28;25065;-72
2022/06/16 12:48:05;;;;;;;;;;;23.30;99.90;;;;;;8352462;28;25065;-71
2022/06/16 12:52:13;;;;;;;;;;;23.40;99.90;;;;;;8350390;28;19925;-72
2022/06/16 12:56:46;;;;;;;;;;;23.50;99.90;;;;;;8350544;28;20247;-72
2022/06/16 13:00:51;;;;;;;;;;;23.50;99.90;;;;;;8340392;28;19921;-72
2022/06/16 13:04:55;;;;;;;;;;;23.50;99.90;;;;;;8351299;28;20364;-72
2022/06/16 13:08:57;;;;;;;;;;;23.60;99.90;;;;;;8350077;28;19920;-72
2022/06/16 13:12:59;;;;;;;;;;;23.60;99.90;;;;;;8361068;28;20280;-72
2022/06/16 13:17:05;;;;;;;;;;;23.50;99.90;;;;;;8359418;28;19925;-72
2022/06/16 13:21:07;;;;;;;;;;;23.40;99.90;;;;;;8359388;28;20008;-71
2022/06/16 13:25:12;;;;;;;;;;;23.50;99.90;;;;;;8363316;28;19921;-72
2022/06/16 13:29:18;;;;;;;;;;;23.60;99.90;;;;;;8360806;28;19924;-71
2022/06/16 13:33:21;;;;;;;;;;;23.60;99.90;;;;;;8388366;27;20260;-72
2022/06/16 13:37:27;;;;;;;;;;;23.80;99.90;;;;;;8358306;28;19928;-72
2022/06/16 13:41:37;;;;;;;;;;;23.90;99.90;;;;;;8356197;28;20239;-72
2022/06/16 13:45:52;;;;;;;;;;;23.90;99.90;;;;;;8387806;28;20018;-72
2022/06/16 13:49:55;;;;;;;;;;;24.00;99.90;;;;;;8356700;28;19924;-72
2022/06/16 13:53:58;;;;;;;;;;;24.00;99.90;;;;;;8357909;28;19927;-72
2022/06/16 13:58:07;;;;;;;;;;;24.10;99.90;;;;;;8363717;28;19952;-72
2022/06/16 14:02:13;;;;;;;;;;;24.20;99.90;;;;;;8355876;28;19928;-72
2022/06/16 14:06:19;;;;;;;;;;;24.20;99.90;;;;;;8369577;28;19972;-72
2022/06/16 14:10:21;;;;;;;;;;;24.20;99.90;;;;;;8363159;28;19928;-72
2022/06/16 14:14:23;;;;;;;;;;;24.20;99.90;;;;;;8359274;28;19921;-72
2022/06/16 14:18:24;;;;;;;;;;;24.20;99.90;;;;;;8356539;28;19924;-72
2022/06/16 14:22:29;;;;;;;;;;;24.30;99.90;;;;;;8356210;28;19931;-72
2022/06/16 14:26:32;;;;;;;;;;;24.40;99.90;;;;;;8360417;28;20179;-71
2022/06/16 14:30:39;;;;;;;;;;;24.50;99.90;;;;;;8358745;28;19935;-72
2022/06/16 14:34:43;;;;;;;;;;;24.60;99.90;;;;;;8354065;28;25064;-72
2022/06/16 14:38:51;;;;;;;;;;;24.70;99.90;;;;;;8387514;28;19940;-72
2022/06/16 14:48:00;;;;;;;;;;;24.80;99.90;;;;;;8356179;28;20019;-72
2022/06/16 14:52:03;;;;;;;;;;;25.10;99.90;;;;;;8357664;28;19920;-72
2022/06/16 14:56:08;;;;;;;;;;;25.20;99.90;;;;;;8356414;28;19925;-72
2022/06/16 15:00:25;;;;;;;;;;;25.30;99.90;;;;;;8351126;28;24075;-72
2022/06/16 15:04:29;;;;;;;;;;;25.20;99.70;;;;;;8355819;28;20301;-72
2022/06/16 15:08:31;;;;;;;;;;;25.20;99.80;;;;;;8358112;28;20206;-72
2022/06/16 15:12:35;;;;;;;;;;;25.30;99.90;;;;;;8355526;28;19955;-72
2022/06/16 15:21:01;;;;;;;;;;;25.30;99.70;;;;;;8355521;28;19927;-72
2022/06/16 15:25:04;;;;;;;;;;;25.30;99.70;;;;;;8355539;28;19998;-72
2022/06/16 15:29:13;;;;;;;;;;;25.30;99.70;;;;;;8371135;28;20000;-72
2022/06/16 15:37:37;;;;;;;;;;;25.30;99.70;;;;;;8354471;28;20038;-72
2022/06/16 15:41:40;;;;;;;;;;;25.40;99.80;;;;;;8351961;28;19936;-72
2022/06/16 15:45:45;;;;;;;;;;;25.50;99.80;;;;;;8355295;28;20372;-72
2022/06/16 15:49:49;;;;;;;;;;;25.50;99.70;;;;;;8356309;28;19920;-72
2022/06/16 15:53:51;;;;;;;;;;;25.50;99.40;;;;;;8369499;28;20280;-72
2022/06/16 15:57:54;;;;;;;;;;;25.50;99.30;;;;;;8354658;28;19928;-72
2022/06/16 16:01:56;;;;;;;;;;;25.40;99.20;;;;;;8350801;28;19924;-72
2022/06/16 16:05:58;;;;;;;;;;;25.60;99.40;;;;;;8352162;28;20488;-72
2022/06/16 16:10:01;;;;;;;;;;;25.80;99.70;;;;;;8353285;28;19925;-72
2022/06/16 16:14:11;;;;;;;;;;;26.10;99.50;;;;;;8351351;28;20296;-72
2022/06/16 16:18:23;;;;;;;;;;;26.20;99.30;;;;;;8353825;28;19972;-72
2022/06/16 16:22:25;;;;;;;;;;;26.10;99.10;;;;;;8365515;28;20373;-72
2022/06/16 16:26:27;;;;;;;;;;;26.10;99.10;;;;;;8380992;28;19924;-72
2022/06/16 16:30:31;;;;;;;;;;;26.10;99.10;;;;;;8350141;28;19921;-72
2022/06/16 16:34:35;;;;;;;;;;;26.00;98.90;;;;;;8349051;28;19932;-72
2022/06/16 16:38:37;;;;;;;;;;;26.00;98.80;;;;;;8352105;28;25064;-72
2022/06/16 16:43:00;;;;;;;;;;;25.80;98.60;;;;;;8365695;28;19924;-72
2022/06/16 16:47:04;;;;;;;;;;;25.50;98.40;;;;;;8358928;28;20292;-72
2022/06/16 16:51:09;;;;;;;;;;;25.30;98.40;;;;;;8357439;28;19920;-72
2022/06/16 16:55:18;;;;;;;;;;;25.20;98.30;;;;;;8367883;28;19924;-72
2022/06/16 16:59:21;;;;;;;;;;;25.20;98.30;;;;;;8354057;28;19929;-72
2022/06/16 17:03:23;;;;;;;;;;;25.00;98.40;;;;;;8356952;28;20250;-72
2022/06/16 17:07:25;;;;;;;;;;;24.90;98.30;;;;;;8372688;28;25118;-72
2022/06/16 17:15:47;;;;;;;;;;;25.20;99.00;;;;;;8363075;28;19928;-72
2022/06/16 17:19:54;;;;;;;;;;;25.50;99.10;;;;;;8356560;28;19979;-72
2022/06/16 17:23:56;;;;;;;;;;;25.80;99.20;;;;;;8354612;28;19921;-72
2022/06/16 17:27:58;;;;;;;;;;;26.00;99.10;;;;;;8360654;28;20384;-72
2022/06/16 17:32:07;;;;;;;;;;;25.90;98.90;;;;;;8364859;28;19932;-72
2022/06/16 17:36:09;;;;;;;;;;;25.80;98.70;;;;;;8347652;28;20356;-72
2022/06/16 17:40:15;;;;;;;;;;;25.80;98.70;;;;;;8353188;28;19928;-72
2022/06/16 17:44:16;;;;;;;;;;;25.70;98.60;;;;;;8355685;28;20000;-72
2022/06/16 17:48:18;;;;;;;;;;;25.70;98.50;;;;;;8355794;28;20408;-72
2022/06/16 18:00:42;;;;;;;;;;;25.50;98.10;;;;;;8353340;28;20343;-72
2022/06/16 18:04:47;;;;;;;;;;;25.50;97.80;;;;;;8367938;28;19936;-72
2022/06/16 18:08:49;;;;;;;;;;;25.40;97.50;;;;;;8353984;28;25057;-72
2022/06/16 18:12:51;;;;;;;;;;;25.30;97.40;;;;;;8351158;28;20014;-72
2022/06/16 18:16:53;;;;;;;;;;;25.20;97.30;;;;;;8354122;28;19925;-72
2022/06/16 18:20:55;;;;;;;;;;;25.10;97.20;;;;;;8353981;28;19978;-72
2022/06/16 18:24:56;;;;;;;;;;;25.00;97.10;;;;;;8369436;28;19920;-72
2022/06/16 18:28:59;;;;;;;;;;;24.90;97.00;;;;;;8351538;28;20618;-72
2022/06/16 18:33:01;;;;;;;;;;;24.80;96.90;;;;;;8363029;28;19920;-72
2022/06/16 18:37:04;;;;;;;;;;;24.60;96.80;;;;;;8355328;28;20031;-72
2022/06/16 18:41:06;;;;;;;;;;;24.50;96.70;;;;;;8352383;28;19924;-72
2022/06/16 18:45:10;;;;;;;;;;;24.40;96.80;;;;;;8356283;28;19924;-72
2022/06/16 18:49:12;;;;;;;;;;;24.30;96.70;;;;;;8359141;28;19929;-72
2022/06/16 18:53:18;;;;;;;;;;;24.20;96.70;;;;;;8352163;28;20271;-72
2022/06/16 18:57:21;;;;;;;;;;;24.10;96.70;;;;;;8353366;28;20360;-72
2022/06/16 19:01:23;;;;;;;;;;;24.00;96.80;;;;;;8354614;28;19921;-72
2022/06/16 19:05:25;;;;;;;;;;;23.90;96.80;;;;;;8355176;28;19921;-72
2022/06/16 19:09:27;;;;;;;;;;;23.90;96.80;;;;;;8352068;28;19940;-72
2022/06/16 19:13:31;;;;;;;;;;;23.80;96.80;;;;;;8347899;28;19928;-72
2022/06/16 19:17:35;;;;;;;;;;;23.80;96.90;;;;;;8349118;28;19921;-72
2022/06/16 19:21:37;;;;;;;;;;;23.70;97.00;;;;;;8376608;28;19935;-72
2022/06/16 19:25:39;;;;;;;;;;;23.70;97.10;;;;;;8363160;28;21027;-72
2022/06/16 19:29:41;;;;;;;;;;;23.60;97.20;;;;;;8340583;28;19960;-72
2022/06/16 19:33:43;;;;;;;;;;;23.50;97.30;;;;;;8348480;28;19927;-72
2022/06/16 19:37:47;;;;;;;;;;;23.30;97.30;;;;;;8345496;28;20589;-72
2022/06/16 19:41:52;;;;;;;;;;;23.20;97.40;;;;;;8348203;28;19973;-72
2022/06/16 19:54:37;;;;;;;;;;;22.80;97.50;;;;;;8360235;28;19921;-72
2022/06/16 19:58:38;;;;;;;;;;;22.70;97.60;;;;;;8357745;28;19927;-72
2022/06/16 20:02:40;;;;;;;;;;;22.60;97.60;;;;;;8342408;28;20540;-72
2022/06/16 20:06:42;;;;;;;;;;;22.50;97.60;;;;;;8349800;28;19933;-72
2022/06/16 20:10:45;;;;;;;;;;;22.30;97.60;;;;;;8343556;28;19921;-72
2022/06/16 20:14:47;;;;;;;;;;;22.20;97.60;;;;;;8344327;28;19931;-72
2022/06/16 20:18:49;;;;;;;;;;;22.10;97.70;;;;;;8349249;28;19928;-72
2022/06/16 20:22:51;;;;;;;;;;;21.90;97.70;;;;;;8334082;28;22246;-72
2022/06/16 20:26:53;;;;;;;;;;;21.80;97.70;;;;;;8339225;28;19924;-72
2022/06/16 20:30:55;;;;;;;;;;;21.70;97.80;;;;;;8343098;28;19932;-72
2022/06/16 20:34:57;;;;;;;;;;;21.60;97.80;;;;;;8379945;28;19936;-72
2022/06/16 20:38:59;;;;;;;;;;;21.50;97.80;;;;;;8342968;28;19925;-72
2022/06/16 20:43:01;;;;;;;;;;;21.40;98.10;;;;;;8343229;28;19932;-72
2022/06/16 20:47:04;;;;;;;;;;;21.30;97.90;;;;;;8354961;28;20298;-72
2022/06/16 20:51:07;;;;;;;;;;;21.20;98.00;;;;;;8350120;28;19932;-72
2022/06/16 20:55:19;;;;;;;;;;;21.10;98.00;;;;;;8343356;28;19925;-72
2022/06/16 21:03:56;;;;;;;;;;;20.90;98.00;;;;;;8367242;28;19951;-72
2022/06/16 21:07:58;;;;;;;;;;;20.80;98.10;;;;;;8370075;28;19925;-72
2022/06/16 21:16:44;;;;;;;;;;;20.60;98.20;;;;;;8364163;28;20331;-72
2022/06/16 21:20:46;;;;;;;;;;;20.50;98.20;;;;;;8369098;28;19924;-71
2022/06/16 21:24:48;;;;;;;;;;;20.40;98.30;;;;;;8364974;28;19920;-72
2022/06/16 21:28:50;;;;;;;;;;;20.40;98.30;;;;;;8365638;28;19928;-72
2022/06/16 21:32:52;;;;;;;;;;;20.20;98.20;;;;;;8369840;28;19931;-72
2022/06/16 21:36:54;;;;;;;;;;;20.10;98.20;;;;;;8366608;28;20392;-72
2022/06/16 21:40:55;;;;;;;;;;;20.00;98.30;;;;;;8397382;28;19983;-72
2022/06/16 21:44:59;;;;;;;;;;;19.90;98.40;;;;;;8382645;28;19928;-72
2022/06/16 21:49:03;;;;;;;;;;;19.80;98.50;;;;;;8367219;28;19924;-72
2022/06/16 21:53:06;;;;;;;;;;;19.70;98.60;;;;;;8371314;28;19920;-72
2022/06/16 21:57:10;;;;;;;;;;;19.70;98.90;;;;;;8366388;28;21429;-72
2022/06/16 22:01:13;;;;;;;;;;;19.60;98.70;;;;;;8362501;28;20380;-72
2022/06/16 22:05:17;;;;;;;;;;;19.50;98.70;;;;;;8369465;28;20652;-72
2022/06/16 22:09:18;;;;;;;;;;;19.50;98.80;;;;;;8358097;28;22870;-72
2022/06/16 22:13:20;;;;;;;;;;;19.40;98.80;;;;;;8371411;28;19947;-72
2022/06/16 22:17:24;;;;;;;;;;;19.40;98.90;;;;;;8379641;28;19931;-72
2022/06/16 22:21:30;;;;;;;;;;;19.30;98.90;;;;;;8370918;28;20402;-72
2022/06/16 22:25:35;;;;;;;;;;;19.20;98.90;;;;;;8365930;28;19933;-72
2022/06/16 22:29:38;;;;;;;;;;;19.10;98.90;;;;;;8361058;28;19933;-72
2022/06/16 22:33:39;;;;;;;;;;;19.10;99.00;;;;;;8378406;28;20390;-72
2022/06/16 22:37:41;;;;;;;;;;;19.00;99.00;;;;;;8365591;28;20293;-72
2022/06/16 22:42:01;;;;;;;;;;;18.90;99.00;;;;;;8364347;28;20306;-72
2022/06/16 22:46:08;;;;;;;;;;;18.90;99.10;;;;;;8362370;28;20255;-72
2022/06/16 22:50:11;;;;;;;;;;;18.80;99.10;;;;;;8334918;28;19925;-72
2022/06/16 22:58:34;;;;;;;;;;;18.70;99.20;;;;;;8336842;28;19929;-72
2022/06/16 23:02:35;;;;;;;;;;;18.60;99.20;;;;;;8325729;28;19958;-72
2022/06/16 23:06:41;;;;;;;;;;;18.60;99.30;;;;;;8335029;28;19929;-72
2022/06/16 23:10:43;;;;;;;;;;;18.50;99.20;;;;;;8339351;28;19929;-72
2022/06/16 23:14:46;;;;;;;;;;;18.50;99.30;;;;;;8312760;28;19924;-71
2022/06/16 23:18:48;;;;;;;;;;;18.40;99.30;;;;;;8329050;28;19933;-72
2022/06/16 23:22:50;;;;;;;;;;;18.40;99.50;;;;;;8329972;28;20293;-72
2022/06/16 23:26:52;;;;;;;;;;;18.30;99.50;;;;;;8318030;28;19925;-72
2022/06/16 23:30:56;;;;;;;;;;;18.30;99.60;;;;;;8326856;28;19932;-72
2022/06/16 23:34:59;;;;;;;;;;;18.30;99.60;;;;;;8341679;28;19928;-72
2022/06/16 23:39:01;;;;;;;;;;;18.30;99.70;;;;;;8332772;28;19933;-72
2022/06/16 23:43:02;;;;;;;;;;;18.20;99.70;;;;;;8330407;28;19925;-72
2022/06/16 23:47:04;;;;;;;;;;;18.20;99.80;;;;;;8335204;28;19933;-72
2022/06/16 23:51:11;;;;;;;;;;;18.20;99.90;;;;;;8335431;28;19939;-72
2022/06/16 23:55:12;;;;;;;;;;;18.10;99.90;;;;;;8331117;28;19933;-72
2022/06/16 23:59:14;;;;;;;;;;;18.10;99.90;;;;;;8330100;28;20686;-72
